Time;durP1;ratioP1;P1;durP2;ratioP2;P2;SDS_P1;SDS_P2;PMS_P1;PMS_P2;Temp;Humidity;BMP_temperature;BMP_pressure;BME280_temperature;BME280_humidity;BME280_pressure;Samples;Min_cycle;Max_cycle;Signal;HPM_P1;HPM_P2
2023/11/07 00:01:37;;;;;;;12.60;3.50;;;;;;;-146.27;85.74;83424.88;5040037;28;20043;-69
2023/11/07 00:04:02;;;;;;;10.65;4.10;;;;;;;-146.27;85.24;83396.75;5029439;28;20034;-68
2023/11/07 00:06:28;;;;;;;9.07;3.67;;;;;;;-146.27;85.53;83467.06;5028676;28;20035;-67
2023/11/07 00:08:53;;;;;;;9.52;3.72;;;;;;;-146.27;84.66;83356.56;5027954;28;20037;-68
2023/11/07 00:11:19;;;;;;;10.57;3.67;;;;;;;-146.27;84.92;83362.59;5023801;28;20029;-68
2023/11/07 00:13:45;;;;;;;9.95;3.53;;;;;;;-146.27;85.42;83420.88;5027282;28;20021;-67
2023/11/07 00:16:11;;;;;;;12.98;3.75;;;;;;;-146.27;86.58;83444.97;5027156;28;20033;-67
2023/11/07 00:18:36;;;;;;;9.43;3.78;;;;;;;-146.27;86.52;83398.75;5029326;28;20064;-67
2023/11/07 00:21:02;;;;;;;7.22;3.67;;;;;;;-146.27;86.54;83463.06;5029954;28;20029;-67
2023/11/07 00:23:27;;;;;;;13.70;3.72;;;;;;;-146.27;85.95;83412.81;5029561;28;20032;-68
2023/11/07 00:25:53;;;;;;;9.70;3.33;;;;;;;-146.27;85.99;83430.91;5027914;28;20413;-67
2023/11/07 00:28:19;;;;;;;9.38;3.78;;;;;;;-146.27;85.83;83424.88;5019664;28;20029;-67
2023/11/07 00:30:45;;;;;;;12.20;3.50;;;;;;;-146.27;85.26;83436.94;5027739;28;20040;-68
2023/11/07 00:33:11;;;;;;;11.23;3.53;;;;;;;-146.27;85.39;83436.94;5024664;28;20026;-68
2023/11/07 00:35:36;;;;;;;7.40;3.17;;;;;;;-146.27;85.75;83449.00;5027617;28;20555;-67
2023/11/07 00:38:04;;;;;;;11.82;3.28;;;;;;;-146.27;84.88;83416.84;5021030;28;20507;-67
2023/11/07 00:40:30;;;;;;;9.20;3.50;;;;;;;-146.27;84.60;83388.72;5025490;28;20037;-68
2023/11/07 00:42:56;;;;;;;7.40;3.45;;;;;;;-146.27;84.23;83376.66;5027505;28;20060;-68
2023/11/07 00:45:21;;;;;;;8.43;3.05;;;;;;;-146.27;84.67;83364.59;5027387;28;20649;-68
2023/11/07 00:47:47;;;;;;;10.13;3.38;;;;;;;-146.27;84.07;83388.72;5027918;28;20033;-67
2023/11/07 00:50:12;;;;;;;10.20;3.08;;;;;;;-146.27;85.02;83404.78;5016334;28;20030;-67
2023/11/07 00:52:40;;;;;;;9.07;3.35;;;;;;;-146.27;84.86;83444.97;5019133;28;20600;-68
2023/11/07 00:55:07;;;;;;;13.75;3.65;;;;;;;-146.27;84.44;83422.88;5028815;28;20707;-68
2023/11/07 00:57:32;;;;;;;8.77;3.35;;;;;;;-146.27;85.49;83477.13;5021550;28;20037;-68
2023/11/07 00:59:58;;;;;;;11.63;3.58;;;;;;;-146.27;84.65;83416.84;5032150;28;20585;-67
2023/11/07 01:02:23;;;;;;;15.13;3.42;;;;;;;-146.27;84.69;83428.91;5031309;28;20021;-67
2023/11/07 01:04:49;;;;;;;16.30;4.05;;;;;;;-146.27;85.94;83505.25;5030568;28;20104;-68
2023/11/07 01:07:14;;;;;;;11.75;3.65;;;;;;;-146.27;84.92;83436.94;5027882;28;20026;-68
2023/11/07 01:09:40;;;;;;;9.73;3.45;;;;;;;-146.27;85.86;83426.88;5032200;28;20083;-67
2023/11/07 01:12:06;;;;;;;8.50;3.42;;;;;;;-146.27;85.32;83449.00;5032392;28;20028;-70
2023/11/07 01:14:32;;;;;;;9.07;3.45;;;;;;;-146.27;86.24;83432.91;5032214;28;20037;-71
2023/11/07 01:16:58;;;;;;;8.63;3.13;;;;;;;-146.27;85.64;83444.97;5024668;28;20124;-71
2023/11/07 01:19:23;;;;;;;9.75;3.28;;;;;;;-146.27;85.97;83483.16;5032886;28;20128;-70
2023/11/07 01:21:49;;;;;;;12.82;3.30;;;;;;;-146.27;86.04;83436.94;5028189;28;20078;-70
2023/11/07 01:24:15;;;;;;;9.95;4.00;;;;;;;-146.27;85.67;83388.72;5031015;28;20071;-70
2023/11/07 01:26:40;;;;;;;10.00;3.75;;;;;;;-146.27;85.60;83436.94;5031948;28;20025;-70
2023/11/07 01:29:06;;;;;;;9.77;3.70;;;;;;;-146.27;85.94;83420.88;5031632;28;20056;-70
2023/11/07 01:31:32;;;;;;;14.52;4.78;;;;;;;-146.27;85.53;83388.72;5024021;28;20236;-70
2023/11/07 01:33:57;;;;;;;7.43;3.58;;;;;;;-146.27;85.72;83406.78;5027634;28;20473;-71
2023/11/07 01:36:22;;;;;;;11.23;3.35;;;;;;;-146.27;85.73;83422.88;5032712;28;20501;-71
2023/11/07 01:38:48;;;;;;;7.38;2.97;;;;;;;-146.27;86.06;83354.56;5032183;28;20491;-70
2023/11/07 01:41:13;;;;;;;9.60;3.63;;;;;;;-146.27;86.18;83352.53;5031578;28;20083;-71
2023/11/07 01:43:39;;;;;;;7.47;3.30;;;;;;;-146.27;86.38;83416.84;5022148;28;20045;-70
2023/11/07 01:46:05;;;;;;;7.45;3.42;;;;;;;-146.27;86.83;83416.84;5026485;28;20366;-70
2023/11/07 01:48:31;;;;;;;12.38;3.25;;;;;;;-146.27;87.85;83457.03;5021286;28;20032;-70
2023/11/07 01:50:58;;;;;;;12.70;3.03;;;;;;;-146.27;88.21;83461.06;5029941;28;20037;-70
2023/11/07 01:53:24;;;;;;;10.85;3.72;;;;;;;-146.27;86.97;83392.72;5020099;28;20018;-70
2023/11/07 01:55:50;;;;;;;9.52;3.05;;;;;;;-146.27;87.59;83416.84;5017574;28;20109;-70
2023/11/07 01:58:18;;;;;;;12.15;3.00;;;;;;;-146.27;87.35;83368.63;5032071;28;20027;-70
2023/11/07 02:00:44;;;;;;;8.52;3.05;;;;;;;-146.27;87.53;83376.66;5030633;28;20044;-69
2023/11/07 02:03:10;;;;;;;7.03;2.75;;;;;;;-146.27;87.36;83344.50;5023811;28;20398;-69
2023/11/07 02:05:35;;;;;;;9.80;3.13;;;;;;;-146.27;87.33;83400.78;5021087;28;20032;-69
2023/11/07 02:08:01;;;;;;;9.00;2.65;;;;;;;-146.27;88.30;83444.97;5031284;28;20028;-69
2023/11/07 02:10:26;;;;;;;5.05;2.22;;;;;;;-146.27;88.38;83406.78;5032021;28;20036;-70
2023/11/07 02:12:53;;;;;;;4.68;2.50;;;;;;;-146.27;87.03;83370.63;5030607;28;20112;-70
2023/11/07 02:15:19;;;;;;;10.50;2.35;;;;;;;-146.27;86.54;83386.69;5032266;28;20040;-70
2023/11/07 02:17:45;;;;;;;12.68;2.38;;;;;;;-146.27;86.91;83414.84;5030645;28;20493;-70
2023/11/07 02:20:12;;;;;;;8.98;2.33;;;;;;;-146.27;86.67;83388.72;5029711;28;20037;-70
2023/11/07 02:22:40;;;;;;;9.82;2.35;;;;;;;-146.27;86.41;83402.78;5023057;28;20026;-69
2023/11/07 02:25:12;;;;;;;9.38;2.28;;;;;;;-146.27;86.01;83380.69;5027999;28;20071;-67
2023/11/07 02:27:37;;;;;;;11.95;2.38;;;;;;;-146.27;86.34;83376.66;5022612;28;20378;-67
2023/11/07 02:30:04;;;;;;;7.55;2.53;;;;;;;-146.27;85.45;83332.44;5031171;28;20052;-67
2023/11/07 02:32:29;;;;;;;5.15;1.95;;;;;;;-146.27;86.13;83372.63;5030382;28;20108;-67
2023/11/07 02:34:55;;;;;;;9.98;2.78;;;;;;;-146.27;85.28;83400.78;5030583;28;20113;-66
2023/11/07 02:37:21;;;;;;;9.73;2.85;;;;;;;-146.27;85.00;83362.59;5024784;28;20481;-67
2023/11/07 02:39:47;;;;;;;6.97;2.25;;;;;;;-146.27;84.45;83356.56;5026283;28;20060;-67
2023/11/07 02:42:13;;;;;;;5.00;2.45;;;;;;;-146.27;85.12;83396.75;5030734;28;20128;-68
2023/11/07 02:44:38;;;;;;;11.52;2.50;;;;;;;-146.27;84.08;83336.47;5027032;28;20105;-69
2023/11/07 02:47:04;;;;;;;6.47;2.38;;;;;;;-146.27;84.92;83400.78;5024279;28;20029;-68
2023/11/07 02:49:30;;;;;;;12.73;3.03;;;;;;;-146.27;84.25;83322.41;5024633;28;20676;-67
2023/11/07 02:51:56;;;;;;;5.32;2.10;;;;;;;-146.27;84.58;83374.66;5029261;28;20029;-67
2023/11/07 02:54:21;;;;;;;7.32;3.05;;;;;;;-146.27;84.56;83380.69;5023228;28;20658;-67
2023/11/07 02:56:47;;;;;;;14.80;2.75;;;;;;;-146.27;84.24;83356.56;5019613;28;20022;-67
2023/11/07 02:59:12;;;;;;;6.53;2.22;;;;;;;-146.27;83.63;83316.38;5030855;28;20033;-68
2023/11/07 03:01:38;;;;;;;7.78;2.45;;;;;;;-146.27;83.66;83336.47;5025758;28;20109;-67
2023/11/07 03:04:04;;;;;;;8.63;2.25;;;;;;;-146.27;83.91;83390.72;5029312;28;20029;-68
2023/11/07 03:06:30;;;;;;;6.75;2.20;;;;;;;-146.27;83.41;83338.47;5029033;28;20040;-68
2023/11/07 03:08:56;;;;;;;10.55;2.35;;;;;;;-146.27;83.35;83390.72;5029223;28;20021;-67
2023/11/07 03:11:22;;;;;;;9.75;2.00;;;;;;;-146.27;83.48;83380.69;5029919;28;20032;-68
2023/11/07 03:13:48;;;;;;;6.75;1.75;;;;;;;-146.27;82.98;83402.78;5030669;28;20036;-67
2023/11/07 03:16:13;;;;;;;5.10;2.38;;;;;;;-146.27;83.23;83336.47;5029892;28;20401;-68
2023/11/07 03:18:39;;;;;;;6.03;1.60;;;;;;;-146.27;82.66;83346.53;5030469;28;20049;-67
2023/11/07 03:21:07;;;;;;;7.25;1.90;;;;;;;-146.27;82.75;83376.66;5027535;28;20554;-67
2023/11/07 03:23:33;;;;;;;8.05;2.20;;;;;;;-146.27;83.44;83408.81;5029846;28;20075;-66
2023/11/07 03:26:00;;;;;;;9.32;2.53;;;;;;;-146.27;82.63;83396.75;5028484;28;20018;-68
2023/11/07 03:28:25;;;;;;;9.57;2.10;;;;;;;-146.27;82.33;83378.66;5019363;28;20044;-70
2023/11/07 03:30:51;;;;;;;8.75;2.08;;;;;;;-146.27;82.44;83376.66;5026536;28;20022;-68
2023/11/07 03:33:17;;;;;;;6.72;1.90;;;;;;;-146.27;82.85;83388.72;5030313;28;20037;-67
2023/11/07 03:35:46;;;;;;;3.55;2.17;;;;;;;-146.27;82.96;83481.16;5029745;28;20025;-68
2023/11/07 03:38:11;;;;;;;4.45;1.73;;;;;;;-146.27;82.33;83400.78;5030325;28;20370;-67
2023/11/07 03:40:37;;;;;;;5.93;2.38;;;;;;;-146.27;82.22;83396.75;5029804;28;20032;-68
2023/11/07 03:43:02;;;;;;;7.03;2.33;;;;;;;-146.27;82.75;83408.81;5030385;28;20115;-68
2023/11/07 03:45:28;;;;;;;6.80;2.40;;;;;;;-146.27;83.13;83416.84;5030192;28;20064;-67
2023/11/07 03:47:53;;;;;;;4.75;1.70;;;;;;;-146.27;82.73;83400.78;5030189;28;20025;-71
2023/11/07 03:50:19;;;;;;;11.77;2.08;;;;;;;-146.27;82.60;83416.84;5030349;28;20493;-67
2023/11/07 03:52:45;;;;;;;6.43;2.28;;;;;;;-146.27;82.45;83418.84;5028546;28;20038;-67
2023/11/07 03:55:10;;;;;;;4.20;1.80;;;;;;;-146.27;82.52;83430.91;5030102;28;20021;-67
2023/11/07 03:57:36;;;;;;;4.88;1.80;;;;;;;-146.27;82.55;83442.97;5030466;28;20438;-67
2023/11/07 04:00:01;;;;;;;6.93;1.95;;;;;;;-146.27;82.62;83469.09;5026797;28;20585;-67
2023/11/07 04:02:26;;;;;;;2.88;1.77;;;;;;;-146.27;82.80;83475.13;5028215;28;20500;-67
2023/11/07 04:04:53;;;;;;;5.55;1.92;;;;;;;-146.27;83.06;83469.09;5029157;28;20113;-68
2023/11/07 04:07:18;;;;;;;4.07;1.63;;;;;;;-146.27;82.73;83469.09;5026187;28;20091;-67
2023/11/07 04:09:44;;;;;;;6.60;1.90;;;;;;;-146.27;82.48;83442.97;5021362;28;20033;-67
2023/11/07 04:12:10;;;;;;;3.72;1.65;;;;;;;-146.27;82.96;83469.09;5027339;28;20543;-67
2023/11/07 04:14:35;;;;;;;5.65;1.70;;;;;;;-146.27;83.58;83539.41;5028726;28;20033;-67
2023/11/07 04:17:03;;;;;;;3.75;1.35;;;;;;;-146.27;83.87;83521.34;5032168;28;20049;-68
2023/11/07 04:19:28;;;;;;;2.83;1.35;;;;;;;-146.27;82.90;83529.38;5024891;28;20030;-68
2023/11/07 04:21:54;;;;;;;2.22;1.13;;;;;;;-146.27;83.02;83549.47;5027368;28;20025;-68
2023/11/07 04:24:21;;;;;;;4.85;1.00;;;;;;;-146.27;82.68;83535.41;5028436;28;20711;-68
2023/11/07 04:26:47;;;;;;;3.42;0.90;;;;;;;-146.27;82.77;83551.47;5020702;28;20037;-69
2023/11/07 04:29:12;;;;;;;1.52;0.75;;;;;;;-146.27;82.68;83601.72;5029315;28;20466;-68
2023/11/07 04:31:38;;;;;;;3.20;0.70;;;;;;;-146.27;81.72;83543.44;5030250;28;20038;-67
2023/11/07 04:34:03;;;;;;;0.68;0.60;;;;;;;-146.27;81.73;83631.84;5033169;28;20480;-69
2023/11/07 04:36:30;;;;;;;1.52;0.80;;;;;;;-146.27;81.42;83513.28;5033281;28;20025;-68
2023/11/07 04:38:56;;;;;;;3.60;1.13;;;;;;;-146.27;81.73;83535.41;5031432;28;20059;-69
2023/11/07 04:41:21;;;;;;;2.03;0.73;;;;;;;-146.27;81.38;83545.44;5031892;28;20029;-71
2023/11/07 04:43:47;;;;;;;1.45;0.60;;;;;;;-146.27;81.15;83573.56;5033715;28;20013;-70
2023/11/07 04:46:13;;;;;;;2.92;0.63;;;;;;;-146.27;81.19;83565.53;5032676;28;20117;-71
2023/11/07 04:48:38;;;;;;;2.40;0.60;;;;;;;-146.27;80.78;83553.47;5025349;28;20042;-70
2023/11/07 04:51:04;;;;;;;0.98;0.70;;;;;;;-146.27;81.34;83589.66;5013745;28;20129;-70
2023/11/07 04:53:30;;;;;;;1.40;0.40;;;;;;;-146.27;80.71;83509.28;5014596;28;20063;-70
2023/11/07 04:55:55;;;;;;;0.98;0.52;;;;;;;-146.27;80.83;83581.59;5021170;28;20034;-71
2023/11/07 04:58:22;;;;;;;2.92;0.50;;;;;;;-146.27;80.62;83535.41;5016439;28;20117;-70
2023/11/07 05:00:48;;;;;;;0.82;0.50;;;;;;;-146.27;80.04;83517.31;5028834;28;20018;-70
2023/11/07 05:03:13;;;;;;;0.50;0.38;;;;;;;-146.27;80.01;83489.19;5028580;28;20025;-70
2023/11/07 05:05:39;;;;;;;1.25;0.50;;;;;;;-146.27;80.25;83529.38;5032313;28;20017;-70
2023/11/07 05:08:04;;;;;;;0.82;0.30;;;;;;;-146.27;80.61;83569.56;5031405;28;20058;-70
2023/11/07 05:10:30;;;;;;;1.75;0.60;;;;;;;-146.27;80.21;83545.44;5028000;28;20061;-71
2023/11/07 05:12:55;;;;;;;3.15;0.40;;;;;;;-146.27;80.04;83537.41;5025797;28;20017;-70
2023/11/07 05:15:21;;;;;;;1.38;0.60;;;;;;;-146.27;80.50;83517.31;5031919;28;20031;-71
2023/11/07 05:17:47;;;;;;;2.92;0.50;;;;;;;-146.27;80.71;83549.47;5032600;28;20053;-70
2023/11/07 05:20:14;;;;;;;2.20;0.45;;;;;;;-146.27;81.53;83573.56;5031405;28;20033;-71
2023/11/07 05:22:40;;;;;;;1.10;0.40;;;;;;;-146.27;81.30;83569.56;5032406;28;20114;-70
2023/11/07 05:25:07;;;;;;;1.75;0.30;;;;;;;-146.27;80.74;83541.41;5032669;28;20064;-70
2023/11/07 05:27:32;;;;;;;2.53;0.50;;;;;;;-146.27;80.45;83519.31;5032042;28;20034;-71
2023/11/07 05:29:57;;;;;;;1.60;0.38;;;;;;;-146.27;80.07;83517.31;5031793;28;20021;-70
2023/11/07 05:32:23;;;;;;;1.73;0.40;;;;;;;-146.27;79.55;83511.28;5027212;28;20113;-70
2023/11/07 05:34:48;;;;;;;0.35;0.28;;;;;;;-146.27;80.37;83545.44;5032114;28;20091;-70
2023/11/07 05:37:15;;;;;;;4.88;0.40;;;;;;;-146.27;81.51;83561.53;5019569;28;20101;-71
2023/11/07 05:39:44;;;;;;;0.90;0.75;;;;;;;-146.27;82.08;83579.59;5032865;28;20031;-69
2023/11/07 05:42:10;;;;;;;3.38;0.30;;;;;;;-146.27;80.75;83563.53;5037584;28;20052;-70
2023/11/07 05:44:35;;;;;;;1.10;0.40;;;;;;;-146.27;80.59;83535.41;5030780;28;20405;-70
2023/11/07 05:47:01;;;;;;;0.30;0.30;;;;;;;-146.27;80.40;83529.38;5028857;28;20033;-70
2023/11/07 05:49:26;;;;;;;2.45;0.43;;;;;;;-146.27;82.30;83613.75;5018399;28;20453;-70
2023/11/07 05:51:52;;;;;;;0.88;0.40;;;;;;;-146.27;81.45;83573.56;5029168;28;20024;-70
2023/11/07 05:54:18;;;;;;;0.65;0.28;;;;;;;-146.27;81.34;83573.56;5025821;28;20446;-69
2023/11/07 05:56:43;;;;;;;1.05;0.32;;;;;;;-146.27;81.41;83547.44;5026675;28;20037;-70
2023/11/07 05:59:09;;;;;;;1.17;0.50;;;;;;;-146.27;81.40;83541.41;5030446;28;20379;-71
2023/11/07 06:01:34;;;;;;;0.98;0.57;;;;;;;-146.27;80.84;83563.53;5031436;28;20029;-71
2023/11/07 06:03:59;;;;;;;3.38;0.50;;;;;;;-146.27;81.61;83621.81;5027556;28;20024;-71
2023/11/07 06:06:25;;;;;;;0.88;0.40;;;;;;;-146.27;80.56;83553.47;5034482;28;20033;-71
2023/11/07 06:08:52;;;;;;;3.40;0.50;;;;;;;-146.27;80.56;83549.47;5031246;28;20036;-71
2023/11/07 06:11:17;;;;;;;1.08;0.50;;;;;;;-146.27;80.50;83517.31;5030538;28;20033;-70
2023/11/07 06:13:43;;;;;;;0.47;0.47;;;;;;;-146.27;80.73;83557.50;5031052;28;20101;-70
2023/11/07 06:16:08;;;;;;;1.65;0.77;;;;;;;-146.27;80.68;83549.47;5029876;28;20021;-70
2023/11/07 06:18:34;;;;;;;1.95;0.70;;;;;;;-146.27;81.24;83585.63;5029821;28;20052;-70
2023/11/07 06:20:59;;;;;;;1.52;0.73;;;;;;;-146.27;81.03;83545.44;5031041;28;20040;-70
2023/11/07 06:23:25;;;;;;;0.85;0.60;;;;;;;-146.27;81.32;83633.84;5029378;28;20029;-70
2023/11/07 06:25:50;;;;;;;2.72;0.70;;;;;;;-146.27;81.14;83577.59;5030245;28;20509;-70
2023/11/07 06:28:16;;;;;;;0.73;0.50;;;;;;;-146.27;82.38;83649.94;5029993;28;20496;-71
2023/11/07 06:30:42;;;;;;;3.90;0.93;;;;;;;-146.27;81.54;83557.50;5030632;28;20079;-71
2023/11/07 06:33:07;;;;;;;4.13;0.75;;;;;;;-146.27;80.78;83553.47;5027431;28;20119;-71
2023/11/07 06:35:33;;;;;;;1.55;0.70;;;;;;;-146.27;81.40;83666.00;5029549;28;20064;-70
2023/11/07 06:37:59;;;;;;;0.50;0.40;;;;;;;-146.27;82.30;83605.72;5031435;28;20040;-71
2023/11/07 06:40:24;;;;;;;1.15;0.50;;;;;;;-146.27;82.17;83621.81;5030337;28;20037;-71
2023/11/07 06:42:51;;;;;;;2.00;0.75;;;;;;;-146.27;82.03;83587.63;5028898;28;20040;-70
2023/11/07 06:45:17;;;;;;;0.95;0.68;;;;;;;-146.27;82.27;83589.66;5016177;28;20163;-71
2023/11/07 06:47:43;;;;;;;10.02;1.00;;;;;;;-146.27;82.09;83607.72;5026338;28;20124;-71
2023/11/07 06:50:10;;;;;;;2.72;0.63;;;;;;;-146.27;81.70;83597.69;5021783;28;20527;-70
2023/11/07 06:52:40;;;;;;;0.75;0.45;;;;;;;-146.27;81.00;83589.66;5020430;28;20032;-69
2023/11/07 06:55:08;;;;;;;1.38;0.60;;;;;;;-146.27;81.17;83571.56;5025528;28;20072;-70
2023/11/07 06:57:34;;;;;;;3.58;0.60;;;;;;;-146.27;80.83;83583.63;5030659;28;20037;-70
2023/11/07 07:00:00;;;;;;;3.08;0.77;;;;;;;-146.27;80.84;83585.63;5048646;28;20025;-71
2023/11/07 07:02:25;;;;;;;2.88;1.00;;;;;;;-146.27;81.03;83601.72;5031213;28;20030;-67
2023/11/07 07:04:51;;;;;;;0.75;0.70;;;;;;;-146.27;81.39;83664.00;5026754;28;20036;-66
2023/11/07 07:07:19;;;;;;;0.95;0.52;;;;;;;-146.27;80.59;83561.53;5027280;28;20036;-66
2023/11/07 07:09:44;;;;;;;1.42;0.60;;;;;;;-146.27;80.81;83567.53;5032145;28;20084;-68
2023/11/07 07:12:10;;;;;;;0.52;0.50;;;;;;;-146.27;80.92;83595.69;5029921;28;20573;-67
2023/11/07 07:14:35;;;;;;;1.35;0.70;;;;;;;-146.27;81.07;83593.66;5029949;28;20030;-69
2023/11/07 07:17:03;;;;;;;0.88;0.50;;;;;;;-146.27;81.00;83569.56;5025549;28;20817;-68
2023/11/07 07:19:29;;;;;;;5.40;1.10;;;;;;;-146.27;80.63;83593.66;5026197;28;20040;-67
2023/11/07 07:21:55;;;;;;;3.15;0.85;;;;;;;-146.27;80.04;83605.72;5023063;28;20042;-67
2023/11/07 07:24:21;;;;;;;6.40;1.45;;;;;;;-146.27;79.71;83545.44;5026392;28;20508;-67
2023/11/07 07:26:47;;;;;;;1.77;0.80;;;;;;;-146.27;79.53;83597.69;5024900;28;20017;-66
2023/11/07 07:29:13;;;;;;;0.90;0.55;;;;;;;-146.27;79.53;83569.56;5026511;28;20037;-68
2023/11/07 07:31:42;;;;;;;2.22;0.43;;;;;;;-146.27;80.04;83589.66;5036391;28;20029;-68
2023/11/07 07:34:09;;;;;;;1.60;0.40;;;;;;;-146.27;79.83;83601.72;5044145;28;20041;-67
2023/11/07 07:36:43;;;;;;;2.75;0.63;;;;;;;-146.27;79.72;83561.53;5019398;28;20474;-67
2023/11/07 07:39:31;;;;;;;1.40;0.68;;;;;;;-146.27;79.93;83609.75;5040030;28;20086;-68
2023/11/07 07:42:00;;;;;;;2.97;0.60;;;;;;;-146.27;80.87;83653.94;5024932;28;20029;-66
2023/11/07 07:44:30;;;;;;;2.63;0.70;;;;;;;-146.27;80.93;83605.72;5042486;28;20032;-67
2023/11/07 07:46:56;;;;;;;2.80;1.23;;;;;;;-146.27;80.33;83601.72;5049433;28;20021;-67
2023/11/07 07:49:25;;;;;;;1.40;0.60;;;;;;;-146.27;81.59;83645.91;5044456;28;20067;-69
2023/11/07 07:51:54;;;;;;;3.03;1.02;;;;;;;-146.27;80.18;83559.50;5024287;28;20028;-70
2023/11/07 07:54:23;;;;;;;6.82;0.88;;;;;;;-146.27;81.30;83565.53;5035768;28;20066;-67
2023/11/07 07:56:53;;;;;;;2.17;0.75;;;;;;;-146.27;80.96;83547.44;5030421;28;20025;-67
2023/11/07 07:59:23;;;;;;;2.05;0.50;;;;;;;-146.27;81.17;83565.53;5028556;28;20018;-68
2023/11/07 08:01:52;;;;;;;3.17;1.08;;;;;;;-146.27;81.70;83653.94;5029467;28;20060;-65
2023/11/07 08:04:28;;;;;;;2.97;0.73;;;;;;;-146.27;82.13;83593.66;5030523;28;20450;-68
2023/11/07 08:06:54;;;;;;;2.70;1.08;;;;;;;-146.27;82.46;83573.56;5029378;28;20111;-66
2023/11/07 08:09:20;;;;;;;4.63;1.00;;;;;;;-146.27;82.05;83543.44;5032697;28;20132;-66
2023/11/07 08:11:47;;;;;;;3.83;1.00;;;;;;;-146.27;82.25;83601.72;5038593;28;20029;-67
2023/11/07 08:14:14;;;;;;;4.40;1.20;;;;;;;-146.27;82.71;83533.38;5042942;28;20622;-67
2023/11/07 08:16:41;;;;;;;4.18;1.10;;;;;;;-146.27;83.13;83581.59;5049836;28;20049;-67
2023/11/07 08:19:09;;;;;;;3.85;0.90;;;;;;;-146.27;82.97;83613.75;5028553;28;20366;-67
2023/11/07 08:21:36;;;;;;;5.40;2.30;;;;;;;-146.27;82.59;83557.50;5029631;28;20409;-67
2023/11/07 08:24:02;;;;;;;2.78;1.15;;;;;;;-146.27;83.10;83599.69;5029740;28;20032;-66
2023/11/07 08:26:27;;;;;;;2.08;1.38;;;;;;;-146.27;82.68;83523.34;5028925;28;20029;-67
2023/11/07 08:28:52;;;;;;;4.82;1.27;;;;;;;-146.27;82.37;83537.41;5029280;28;20029;-68
2023/11/07 08:31:18;;;;;;;3.15;1.25;;;;;;;-146.27;81.81;83513.28;5047085;28;20100;-67
2023/11/07 08:33:43;;;;;;;4.90;1.20;;;;;;;-146.27;82.17;83535.41;5049776;28;20052;-68
2023/11/07 08:36:09;;;;;;;5.15;2.00;;;;;;;-146.27;81.68;83436.94;5045345;28;20080;-68
2023/11/07 08:38:37;;;;;;;5.97;1.65;;;;;;;-146.27;81.32;83467.06;5024526;28;20025;-67
2023/11/07 08:41:02;;;;;;;4.05;1.48;;;;;;;-146.27;81.74;83473.09;5042475;28;20029;-67
2023/11/07 08:43:28;;;;;;;3.20;1.40;;;;;;;-146.27;82.41;83521.34;5028347;28;20044;-67
2023/11/07 08:45:54;;;;;;;4.00;1.38;;;;;;;-146.27;81.59;83442.97;5030329;28;20089;-67
2023/11/07 08:48:20;;;;;;;3.50;2.22;;;;;;;-146.27;81.66;83457.03;5048663;28;20045;-67
2023/11/07 08:50:45;;;;;;;3.50;1.40;;;;;;;-146.27;81.04;83408.81;5033473;28;20068;-67
2023/11/07 08:53:12;;;;;;;4.10;1.45;;;;;;;-146.27;80.78;83408.81;5036307;28;20029;-67
2023/11/07 08:55:38;;;;;;;2.55;1.20;;;;;;;-146.27;80.25;83306.34;5034631;28;20071;-67
2023/11/07 08:58:05;;;;;;;2.83;1.67;;;;;;;-146.27;80.00;83360.59;5028774;28;20056;-68
2023/11/07 09:00:32;;;;;;;3.80;1.70;;;;;;;-146.27;79.65;83328.44;5029485;28;20029;-68
2023/11/07 09:02:57;;;;;;;4.88;1.35;;;;;;;-146.27;79.50;83310.34;5045890;28;20025;-67
2023/11/07 09:05:24;;;;;;;6.43;1.58;;;;;;;-146.27;80.24;83290.25;5041723;28;20421;-69
2023/11/07 09:07:50;;;;;;;2.72;1.13;;;;;;;-146.27;81.03;83340.50;5039286;28;20103;-66
2023/11/07 09:10:16;;;;;;;5.70;1.10;;;;;;;-146.27;81.11;83376.66;5030215;28;20060;-66
2023/11/07 09:12:42;;;;;;;4.97;1.50;;;;;;;-146.27;81.31;83356.56;5034515;28;20619;-68
2023/11/07 09:15:11;;;;;;;4.28;1.65;;;;;;;-146.27;81.63;83338.47;5032888;28;20025;-67
2023/11/07 09:17:41;;;;;;;2.75;1.35;;;;;;;-146.27;80.56;83270.16;5010313;28;20057;-67
2023/11/07 09:20:11;;;;;;;2.08;1.10;;;;;;;-146.27;81.36;83280.22;5036474;28;20037;-66
2023/11/07 09:22:37;;;;;;;8.13;1.58;;;;;;;-146.27;81.45;83368.63;5043969;28;20536;-70
2023/11/07 09:25:04;;;;;;;3.90;1.33;;;;;;;-146.27;80.52;83262.13;5037782;28;20025;-68
2023/11/07 09:27:29;;;;;;;5.25;1.40;;;;;;;-146.27;80.04;83248.06;5029612;28;20902;-69
2023/11/07 09:29:55;;;;;;;8.43;1.50;;;;;;;-146.27;79.83;83270.16;5025850;28;20025;-69
2023/11/07 09:32:22;;;;;;;3.33;1.77;;;;;;;-146.27;79.53;83244.03;5024977;28;20041;-69
2023/11/07 09:34:47;;;;;;;3.78;1.20;;;;;;;-146.27;79.43;83278.19;5035094;28;20044;-69
2023/11/07 09:37:14;;;;;;;3.20;1.30;;;;;;;-146.27;78.97;83205.88;5036666;28;20017;-70
2023/11/07 09:39:41;;;;;;;9.40;1.48;;;;;;;-146.27;77.97;83191.81;5027005;28;20033;-70
2023/11/07 09:42:07;;;;;;;4.93;1.40;;;;;;;-146.27;76.65;83091.34;5024486;28;20061;-70
2023/11/07 09:44:37;;;;;;;5.85;1.17;;;;;;;-146.27;76.27;83075.28;5021849;28;20025;-70
2023/11/07 09:47:04;;;;;;;6.95;1.10;;;;;;;-146.27;75.55;83051.16;5024107;28;21549;-70
2023/11/07 09:49:31;;;;;;;3.10;0.93;;;;;;;-146.27;75.56;83095.38;5040332;28;20086;-71
2023/11/07 09:51:59;;;;;;;4.25;1.15;;;;;;;-146.27;75.43;83059.19;5038679;28;20025;-71
2023/11/07 09:54:28;;;;;;;5.35;0.90;;;;;;;-146.27;75.80;83103.41;5044575;28;20021;-70
2023/11/07 09:56:54;;;;;;;4.05;1.20;;;;;;;-146.27;75.18;82982.84;5037624;28;20108;-70
2023/11/07 09:59:29;;;;;;;6.60;1.38;;;;;;;-146.27;74.26;82920.56;5039337;28;20846;-70
2023/11/07 10:01:55;;;;;;;11.63;1.40;;;;;;;-146.27;72.64;82992.91;5046123;28;20035;-69
2023/11/07 10:04:22;;;;;;;9.45;1.17;;;;;;;-146.27;73.28;83008.97;5032387;28;20473;-70
2023/11/07 10:06:48;;;;;;;9.48;3.38;;;;;;;-146.27;71.89;82856.28;5038540;28;20029;-70
2023/11/07 10:09:16;;;;;;;2.72;1.00;;;;;;;-146.27;70.92;82858.28;5041017;28;20320;-70
2023/11/07 10:11:45;;;;;;;9.02;1.83;;;;;;;-146.27;69.78;82753.81;5036798;28;20057;-71
2023/11/07 10:14:11;;;;;;;1.33;0.85;;;;;;;-146.27;69.24;82683.50;5025865;28;20472;-70
2023/11/07 10:16:41;;;;;;;6.20;1.08;;;;;;;-146.27;68.30;82731.72;5035593;28;20049;-70
2023/11/07 10:19:12;;;;;;;5.50;1.33;;;;;;;-146.27;67.60;82679.50;5026397;28;20095;-69
2023/11/07 10:21:37;;;;;;;8.57;1.35;;;;;;;-146.27;66.92;82621.22;5027944;28;20038;-70
2023/11/07 10:24:03;;;;;;;4.93;1.70;;;;;;;-146.27;66.48;82617.22;5042024;28;20036;-69
2023/11/07 10:26:30;;;;;;;3.60;1.13;;;;;;;-146.27;66.06;82691.53;5038462;28;20056;-69
2023/11/07 10:29:12;;;;;;;5.03;0.98;;;;;;;-146.27;66.36;82681.50;5039768;28;20025;-69
2023/11/07 10:31:38;;;;;;;5.82;1.20;;;;;;;-146.27;64.51;82542.88;5031608;28;20497;-69
2023/11/07 10:34:16;;;;;;;5.88;1.00;;;;;;;-146.27;63.52;82536.84;5036312;28;20065;-68
2023/11/07 10:36:43;;;;;;;5.55;1.10;;;;;;;-146.27;63.69;82542.88;5031404;28;20048;-69
2023/11/07 10:39:23;;;;;;;9.40;1.42;;;;;;;-146.27;63.12;82496.69;5038499;28;20025;-68
2023/11/07 10:41:48;;;;;;;6.10;1.70;;;;;;;-146.27;63.26;82466.56;5041627;28;20037;-69
2023/11/07 10:44:25;;;;;;;3.25;0.90;;;;;;;-146.27;62.78;82370.13;5033284;28;20026;-69
2023/11/07 10:46:58;;;;;;;6.93;1.23;;;;;;;-146.27;62.78;82520.78;5029720;28;20033;-70
2023/11/07 10:49:25;;;;;;;10.00;1.20;;;;;;;-146.27;62.43;82512.75;5031312;28;20508;-69
2023/11/07 10:51:51;;;;;;;8.45;1.25;;;;;;;-146.27;63.61;82577.03;5023526;28;20425;-69
2023/11/07 10:54:20;;;;;;;7.20;1.15;;;;;;;-146.27;65.20;82532.84;5037866;28;20029;-68
2023/11/07 10:56:47;;;;;;;5.35;0.90;;;;;;;-146.27;65.74;82637.31;5035262;28;20390;-69
2023/11/07 10:59:22;;;;;;;4.38;1.02;;;;;;;-146.27;64.81;82593.09;5028844;28;20069;-69
2023/11/07 11:01:52;;;;;;;4.40;0.70;;;;;;;-146.27;64.26;82508.72;5034129;28;20036;-68
2023/11/07 11:04:20;;;;;;;3.17;0.90;;;;;;;-146.27;64.35;82500.69;5037431;28;20040;-69
2023/11/07 11:06:52;;;;;;;4.65;0.82;;;;;;;-146.27;64.03;82542.88;5028412;28;20021;-69
2023/11/07 11:09:20;;;;;;;8.02;0.82;;;;;;;-146.27;65.61;82701.59;5032326;28;20029;-69
2023/11/07 11:11:51;;;;;;;6.00;1.45;;;;;;;-146.27;66.36;82725.69;5027698;28;20191;-69
2023/11/07 11:14:17;;;;;;;5.82;1.10;;;;;;;-146.27;66.00;82625.25;5029882;28;20044;-68